Kinross, MI (49752)

12:31 AM EST on February 28, 2015 (GMT -0500)
Chippewa County International | Change Station
CLOSE
Current Station
Airport
Location: Chippewa,
Elevation: 801 ft
Nearby Weather Stations

Elev 801 ft 46.25 °N, 84.48 °W | Updated 16 minutes ago

Clear
Clear
3 °F
Feels Like -4 °F
N
4
Wind Variable Wind from SSW

Today
High -- | Low -- °F
--% Chance of Precip.
Yesterday
High -- | Low -- °F
Precip. -- in
7:19 AM 6:22 PM
Waxing Gibbous, 74% visible
Pressure 30.47 in
Visibility 10.0 miles
Clouds Clear
Windchill -4 °F
Dew Point 1 °F
Humidity 92%
Rainfall 0.00 in
Snow Depth Not available.
UV 0 out of 12
Pollen .30 out of 12
Air Quality Not available.
Flu Activity Not available.
METAR KCIU 280515Z AUTO 21003KT 10SM CLR M16/M17 A3047 RMK AO1

More Conditions Fewer Conditions

Pressure 30.47 in
Visibility 10.0 miles
Clouds Clear
Windchill -4 °F
Dew Point 1 °F
Humidity 92%
Rainfall 0.00 in
Snow Depth Not available.
UV 0 out of 12
Pollen .30 out of 12
Air Quality Not available.
Flu Activity Not available.
METAR KCIU 280515Z AUTO 21003KT 10SM CLR M16/M17 A3047 RMK AO1

More Conditions Fewer Conditions

Nowcast | as of 12:00 am EST on February 28, 2015

At 1 am...clear. Temperature 4 below. South winds 5 mph. At 3 am...clear. Temperature 3 below. Light winds. At 5 am...clear. Temperature 2 below. Light winds. At 7 am...clear. Temperature 1 below. Light winds.

×

10-Day Weather Forecast

Almanac

Astronomy

Feb. 28, 2015 Rise Set
Actual Time
Civil Twilight
Nautical Twilight
Astronomical Twilight
Moon
Length of Visible Light
Length of Day
Tomorrow will be .
, % of the Moon is Illuminated

Today's Extremes

State Highs State Lows

Community

WunderPhotos

Upload Photos

1,800,973 photos uploaded!

WunderBlogs® & News

Nearby

Air Quality

  Air Quality AQ Index Pollutant
Not available.

Snow Depth

Station Depth Elevation

Earthquake Activity

City Distance Mag. Time & Date
Minimum magnitude displayed is 2.5.

Coastal Water Temperatures

Place Temperature

Nearby Weather Stations